CheckWX is a tool to help pilots better visualize weather data.  It is not intended as a substitute for an official pre-flight weather briefing.

16:32:42 UTC

KWWR TAF
West Woodward Airport
Woodward, Oklahoma, USA
KWWR 191131Z 1912/2012 18008KT P6SM FEW250 FM191800 17017G26KT P6SM SCT250

Nov-19@
12:00 UTC

Nov-19 @ 12:00 UTC

Nov-19@
18:00 UTC

Nov-19 @ 18:00 UTC

KWWR 191131Z 1912/2012 18008KT P6SM FEW250
Wind
  • 180° at 8 KTS
Cloud Levels
  • Few at 25,000' AGL

Nov-19@
18:00 UTC

Nov-19 @ 18:00 UTC

Nov-20@
12:00 UTC

Nov-20 @ 12:00 UTC

FM191800 17017G26KT P6SM SCT250

From

From Standard forecast or significant change

Wind
  • 170° at 17 KTS
  • {Gusting to 26 KTS
Cloud Levels
  • Scattered at 25,000' AGL